sensor_id;sensor_type;location;lat;lon;timestamp;pressure;altitude;pressure_sealevel;temperature;humidity
13348;BME280;6743;49.934;9.138;2023-05-11T00:00:19;100230.81;;;12.19;100.00
13348;BME280;6743;49.934;9.138;2023-05-11T00:02:45;100224.03;;;12.16;100.00
13348;BME280;6743;49.934;9.138;2023-05-11T00:05:12;100223.37;;;12.14;100.00
13348;BME280;6743;49.934;9.138;2023-05-11T00:07:38;100225.34;;;12.12;100.00
13348;BME280;6743;49.934;9.138;2023-05-11T00:10:06;100229.03;;;12.11;100.00
13348;BME280;6743;49.934;9.138;2023-05-11T00:12:32;100223.06;;;12.09;100.00
13348;BME280;6743;49.934;9.138;2023-05-11T00:14:58;100226.72;;;12.08;100.00
13348;BME280;6743;49.934;9.138;2023-05-11T00:17:24;100231.38;;;12.06;100.00
13348;BME280;6743;49.934;9.138;2023-05-11T00:19:50;100225.91;;;12.08;100.00
13348;BME280;6743;49.934;9.138;2023-05-11T00:22:19;100224.41;;;12.05;100.00
13348;BME280;6743;49.934;9.138;2023-05-11T00:24:44;100225.41;;;12.04;100.00
13348;BME280;6743;49.934;9.138;2023-05-11T00:27:11;100222.28;;;12.01;100.00
13348;BME280;6743;49.934;9.138;2023-05-11T00:29:37;100224.94;;;12.01;100.00
13348;BME280;6743;49.934;9.138;2023-05-11T00:32:03;100225.78;;;12.01;100.00
13348;BME280;6743;49.934;9.138;2023-05-11T00:34:29;100227.75;;;11.99;100.00
13348;BME280;6743;49.934;9.138;2023-05-11T00:36:56;100222.12;;;12.02;100.00
13348;BME280;6743;49.934;9.138;2023-05-11T00:39:22;100206.03;;;11.96;100.00
13348;BME280;6743;49.934;9.138;2023-05-11T00:41:48;100218.28;;;11.97;100.00
13348;BME280;6743;49.934;9.138;2023-05-11T00:44:14;100215.31;;;12.00;100.00
13348;BME280;6743;49.934;9.138;2023-05-11T00:46:41;100211.81;;;11.99;100.00
13348;BME280;6743;49.934;9.138;2023-05-11T00:49:07;100210.97;;;11.99;100.00
13348;BME280;6743;49.934;9.138;2023-05-11T00:51:34;100210.97;;;11.99;100.00
13348;BME280;6743;49.934;9.138;2023-05-11T00:54:01;100210.31;;;11.97;100.00
13348;BME280;6743;49.934;9.138;2023-05-11T00:56:27;100211.34;;;11.96;100.00
13348;BME280;6743;49.934;9.138;2023-05-11T00:58:53;100203.53;;;11.94;100.00
13348;BME280;6743;49.934;9.138;2023-05-11T01:01:20;100203.53;;;11.94;100.00
13348;BME280;6743;49.934;9.138;2023-05-11T01:03:47;100203.72;;;11.93;100.00
13348;BME280;6743;49.934;9.138;2023-05-11T01:06:19;100193.25;;;11.91;100.00
13348;BME280;6743;49.934;9.138;2023-05-11T01:08:55;100202.72;;;11.94;100.00
13348;BME280;6743;49.934;9.138;2023-05-11T01:11:27;100203.88;;;11.91;100.00
13348;BME280;6743;49.934;9.138;2023-05-11T01:13:58;100209.19;;;11.91;100.00
13348;BME280;6743;49.934;9.138;2023-05-11T01:16:27;100199.75;;;11.89;100.00
13348;BME280;6743;49.934;9.138;2023-05-11T01:18:58;100207.53;;;11.90;100.00
13348;BME280;6743;49.934;9.138;2023-05-11T01:21:29;100204.41;;;11.87;100.00
13348;BME280;6743;49.934;9.138;2023-05-11T01:24:21;100200.91;;;11.86;100.00
13348;BME280;6743;49.934;9.138;2023-05-11T01:27:13;100209.91;;;11.85;100.00
13348;BME280;6743;49.934;9.138;2023-05-11T01:30:01;100215.22;;;11.85;100.00
13348;BME280;6743;49.934;9.138;2023-05-11T01:32:31;100199.63;;;11.82;100.00
13348;BME280;6743;49.934;9.138;2023-05-11T01:35:02;100205.75;;;11.82;100.00
13348;BME280;6743;49.934;9.138;2023-05-11T01:37:30;100197.97;;;11.81;100.00
13348;BME280;6743;49.934;9.138;2023-05-11T01:39:59;100202.44;;;11.80;100.00
13348;BME280;6743;49.934;9.138;2023-05-11T01:42:31;100199.97;;;11.79;100.00
13348;BME280;6743;49.934;9.138;2023-05-11T01:44:58;100199.97;;;11.79;100.00
13348;BME280;6743;49.934;9.138;2023-05-11T01:47:27;100200.63;;;11.81;100.00
13348;BME280;6743;49.934;9.138;2023-05-11T01:49:55;100204.62;;;11.77;100.00
13348;BME280;6743;49.934;9.138;2023-05-11T01:52:24;100196.31;;;11.72;100.00
13348;BME280;6743;49.934;9.138;2023-05-11T01:54:53;100205.94;;;11.73;100.00
13348;BME280;6743;49.934;9.138;2023-05-11T01:57:20;100202.16;;;11.67;100.00
13348;BME280;6743;49.934;9.138;2023-05-11T01:59:47;100212.41;;;11.70;100.00
13348;BME280;6743;49.934;9.138;2023-05-11T02:02:15;100207.28;;;11.69;100.00
13348;BME280;6743;49.934;9.138;2023-05-11T02:04:43;100205.97;;;11.65;100.00
13348;BME280;6743;49.934;9.138;2023-05-11T02:07:12;100206.97;;;11.64;100.00
13348;BME280;6743;49.934;9.138;2023-05-11T02:09:39;100204.69;;;11.61;100.00
13348;BME280;6743;49.934;9.138;2023-05-11T02:12:06;100218.59;;;11.63;100.00
13348;BME280;6743;49.934;9.138;2023-05-11T02:14:34;100212.81;;;11.59;100.00
13348;BME280;6743;49.934;9.138;2023-05-11T02:17:02;100206.00;;;11.57;100.00
13348;BME280;6743;49.934;9.138;2023-05-11T02:19:30;100214.13;;;11.55;100.00
13348;BME280;6743;49.934;9.138;2023-05-11T02:22:00;100208.34;;;11.52;100.00
13348;BME280;6743;49.934;9.138;2023-05-11T02:24:29;100211.69;;;11.54;100.00
13348;BME280;6743;49.934;9.138;2023-05-11T02:26:55;100219.81;;;11.52;100.00
13348;BME280;6743;49.934;9.138;2023-05-11T02:29:22;100206.56;;;11.44;100.00
13348;BME280;6743;49.934;9.138;2023-05-11T02:31:54;100223.78;;;11.48;100.00
13348;BME280;6743;49.934;9.138;2023-05-11T02:34:23;100218.84;;;11.45;100.00
13348;BME280;6743;49.934;9.138;2023-05-11T02:36:53;100218.00;;;11.44;100.00
13348;BME280;6743;49.934;9.138;2023-05-11T02:39:21;100216.50;;;11.42;100.00
13348;BME280;6743;49.934;9.138;2023-05-11T02:41:55;100216.50;;;11.42;100.00
13348;BME280;6743;49.934;9.138;2023-05-11T02:44:22;100210.56;;;11.40;100.00
13348;BME280;6743;49.934;9.138;2023-05-11T02:46:51;100219.38;;;11.40;100.00
13348;BME280;6743;49.934;9.138;2023-05-11T02:49:23;100222.19;;;11.39;100.00
13348;BME280;6743;49.934;9.138;2023-05-11T02:51:51;100213.53;;;11.37;100.00
13348;BME280;6743;49.934;9.138;2023-05-11T02:54:19;100171.47;;;11.10;100.00
13348;BME280;6743;49.934;9.138;2023-05-11T02:56:48;100219.22;;;11.34;100.00
13348;BME280;6743;49.934;9.138;2023-05-11T02:59:15;100219.38;;;11.32;100.00
13348;BME280;6743;49.934;9.138;2023-05-11T03:01:42;100216.87;;;11.31;100.00
13348;BME280;6743;49.934;9.138;2023-05-11T03:04:08;100212.09;;;11.26;100.00
13348;BME280;6743;49.934;9.138;2023-05-11T03:06:35;100213.94;;;11.26;100.00
13348;BME280;6743;49.934;9.138;2023-05-11T03:09:02;100214.09;;;11.24;100.00
13348;BME280;6743;49.934;9.138;2023-05-11T03:11:28;100214.56;;;11.28;100.00
13348;BME280;6743;49.934;9.138;2023-05-11T03:13:55;100226.00;;;11.28;100.00
13348;BME280;6743;49.934;9.138;2023-05-11T03:16:22;100214.09;;;11.24;100.00
13348;BME280;6743;49.934;9.138;2023-05-11T03:18:49;100207.63;;;11.19;100.00
13348;BME280;6743;49.934;9.138;2023-05-11T03:21:17;100201.34;;;11.12;100.00
13348;BME280;6743;49.934;9.138;2023-05-11T03:23:46;100223.56;;;11.19;100.00
13348;BME280;6743;49.934;9.138;2023-05-11T03:26:14;100216.09;;;11.14;100.00
13348;BME280;6743;49.934;9.138;2023-05-11T03:28:42;100225.72;;;11.15;100.00
13348;BME280;6743;49.934;9.138;2023-05-11T03:31:09;100221.41;;;11.14;100.00
13348;BME280;6743;49.934;9.138;2023-05-11T03:33:36;100214.63;;;11.12;100.00
13348;BME280;6743;49.934;9.138;2023-05-11T03:36:03;100219.09;;;11.11;100.00
13348;BME280;6743;49.934;9.138;2023-05-11T03:38:31;100210.63;;;11.07;100.00
13348;BME280;6743;49.934;9.138;2023-05-11T03:40:59;100214.13;;;11.08;100.00
13348;BME280;6743;49.934;9.138;2023-05-11T03:43:26;100215.94;;;11.07;100.00
13348;BME280;6743;49.934;9.138;2023-05-11T03:45:55;100219.44;;;11.08;100.00
13348;BME280;6743;49.934;9.138;2023-05-11T03:48:22;100218.44;;;11.09;100.00
13348;BME280;6743;49.934;9.138;2023-05-11T03:50:49;100214.94;;;11.09;100.00
13348;BME280;6743;49.934;9.138;2023-05-11T03:53:16;100215.31;;;11.05;100.00
13348;BME280;6743;49.934;9.138;2023-05-11T03:55:42;100211.97;;;11.03;100.00
13348;BME280;6743;49.934;9.138;2023-05-11T03:58:09;100217.13;;;11.05;100.00
13348;BME280;6743;49.934;9.138;2023-05-11T04:00:38;100213.63;;;11.04;100.00
13348;BME280;6743;49.934;9.138;2023-05-11T04:03:04;100210.47;;;11.01;100.00
13348;BME280;6743;49.934;9.138;2023-05-11T04:05:31;100214.78;;;11.02;100.00
13348;BME280;6743;49.934;9.138;2023-05-11T04:07:57;100205.16;;;11.01;100.00
13348;BME280;6743;49.934;9.138;2023-05-11T04:10:24;100203.50;;;11.00;100.00
13348;BME280;6743;49.934;9.138;2023-05-11T04:12:50;100208.66;;;11.01;100.00
13348;BME280;6743;49.934;9.138;2023-05-11T04:15:17;100206.66;;;11.03;100.00
13348;BME280;6743;49.934;9.138;2023-05-11T04:17:43;100209.78;;;11.07;100.00
13348;BME280;6743;49.934;9.138;2023-05-11T04:20:09;100215.44;;;11.12;100.00
13348;BME280;6743;49.934;9.138;2023-05-11T04:22:35;100213.78;;;11.11;100.00
13348;BME280;6743;49.934;9.138;2023-05-11T04:25:02;100221.75;;;11.11;100.00
13348;BME280;6743;49.934;9.138;2023-05-11T04:27:31;100220.41;;;11.15;100.00
13348;BME280;6743;49.934;9.138;2023-05-11T04:29:57;100210.28;;;11.19;100.00
13348;BME280;6743;49.934;9.138;2023-05-11T04:32:23;100208.09;;;11.22;100.00
13348;BME280;6743;49.934;9.138;2023-05-11T04:34:49;100216.75;;;11.24;100.00
13348;BME280;6743;49.934;9.138;2023-05-11T04:37:15;100215.09;;;11.23;100.00
13348;BME280;6743;49.934;9.138;2023-05-11T04:39:41;100220.56;;;11.22;100.00
13348;BME280;6743;49.934;9.138;2023-05-11T04:42:08;100223.06;;;11.23;100.00
13348;BME280;6743;49.934;9.138;2023-05-11T04:44:34;100220.06;;;11.26;100.00
13348;BME280;6743;49.934;9.138;2023-05-11T04:47:00;100213.72;;;11.27;100.00
13348;BME280;6743;49.934;9.138;2023-05-11T04:49:26;100222.38;;;11.29;100.00
13348;BME280;6743;49.934;9.138;2023-05-11T04:51:52;100223.34;;;11.28;100.00
13348;BME280;6743;49.934;9.138;2023-05-11T04:54:18;100224.19;;;11.29;100.00
13348;BME280;6743;49.934;9.138;2023-05-11T04:56:44;100222.38;;;11.29;100.00
13348;BME280;6743;49.934;9.138;2023-05-11T04:59:10;100234.66;;;11.30;100.00
13348;BME280;6743;49.934;9.138;2023-05-11T05:01:36;100228.34;;;11.31;100.00
13348;BME280;6743;49.934;9.138;2023-05-11T05:04:02;100227.34;;;11.32;100.00
13348;BME280;6743;49.934;9.138;2023-05-11T05:06:28;100233.28;;;11.34;100.00
13348;BME280;6743;49.934;9.138;2023-05-11T05:08:54;100229.66;;;11.35;100.00
13348;BME280;6743;49.934;9.138;2023-05-11T05:11:20;100231.31;;;11.36;100.00
13348;BME280;6743;49.934;9.138;2023-05-11T05:13:46;100231.16;;;11.38;100.00
13348;BME280;6743;49.934;9.138;2023-05-11T05:16:13;100233.28;;;11.42;100.00
13348;BME280;6743;49.934;9.138;2023-05-11T05:18:39;100236.78;;;11.43;100.00
13348;BME280;6743;49.934;9.138;2023-05-11T05:21:05;100235.94;;;11.42;100.00
13348;BME280;6743;49.934;9.138;2023-05-11T05:23:31;100234.41;;;11.48;100.00
13348;BME280;6743;49.934;9.138;2023-05-11T05:25:57;100240.41;;;11.50;100.00
13348;BME280;6743;49.934;9.138;2023-05-11T05:28:23;100239.06;;;11.54;100.00
13348;BME280;6743;49.934;9.138;2023-05-11T05:30:49;100241.53;;;11.56;100.00
13348;BME280;6743;49.934;9.138;2023-05-11T05:33:15;100243.03;;;11.58;100.00
13348;BME280;6743;49.934;9.138;2023-05-11T05:35:41;100241.03;;;11.60;100.00
13348;BME280;6743;49.934;9.138;2023-05-11T05:38:10;100245.00;;;11.64;100.00
13348;BME280;6743;49.934;9.138;2023-05-11T05:40:36;100251.81;;;11.67;100.00
13348;BME280;6743;49.934;9.138;2023-05-11T05:43:04;100245.97;;;11.71;100.00
13348;BME280;6743;49.934;9.138;2023-05-11T05:45:30;100242.31;;;11.72;100.00
13348;BME280;6743;49.934;9.138;2023-05-11T05:47:56;100261.25;;;11.77;100.00
13348;BME280;6743;49.934;9.138;2023-05-11T05:50:25;100251.97;;;11.81;100.00
13348;BME280;6743;49.934;9.138;2023-05-11T05:52:51;100260.22;;;11.87;100.00
13348;BME280;6743;49.934;9.138;2023-05-11T05:55:17;100248.78;;;11.86;100.00
13348;BME280;6743;49.934;9.138;2023-05-11T05:57:43;100252.72;;;11.90;100.00
13348;BME280;6743;49.934;9.138;2023-05-11T06:00:10;100252.38;;;11.93;100.00
13348;BME280;6743;49.934;9.138;2023-05-11T06:02:37;100254.88;;;11.95;100.00
13348;BME280;6743;49.934;9.138;2023-05-11T06:05:04;100257.84;;;12.00;100.00
13348;BME280;6743;49.934;9.138;2023-05-11T06:07:31;100248.03;;;12.00;100.00
13348;BME280;6743;49.934;9.138;2023-05-11T06:09:57;100262.81;;;12.03;100.00
13348;BME280;6743;49.934;9.138;2023-05-11T06:12:23;100266.94;;;12.05;100.00
13348;BME280;6743;49.934;9.138;2023-05-11T06:14:49;100263.13;;;12.08;100.00
13348;BME280;6743;49.934;9.138;2023-05-11T06:17:16;100265.41;;;12.11;100.00
13348;BME280;6743;49.934;9.138;2023-05-11T06:19:44;100260.59;;;12.14;100.00
13348;BME280;6743;49.934;9.138;2023-05-11T06:22:11;100267.22;;;12.18;100.00
13348;BME280;6743;49.934;9.138;2023-05-11T06:24:38;100275.31;;;12.25;100.00
13348;BME280;6743;49.934;9.138;2023-05-11T06:27:04;100281.97;;;12.29;100.00
13348;BME280;6743;49.934;9.138;2023-05-11T06:29:30;100270.94;;;12.32;100.00
13348;BME280;6743;49.934;9.138;2023-05-11T06:31:56;100264.16;;;12.30;100.00
13348;BME280;6743;49.934;9.138;2023-05-11T06:34:23;100277.06;;;12.41;100.00
13348;BME280;6743;49.934;9.138;2023-05-11T06:36:49;100277.09;;;12.33;100.00
13348;BME280;6743;49.934;9.138;2023-05-11T06:39:16;100275.28;;;12.33;100.00
13348;BME280;6743;49.934;9.138;2023-05-11T06:41:43;100266.94;;;12.36;100.00
13348;BME280;6743;49.934;9.138;2023-05-11T06:44:09;100266.59;;;12.39;100.00
13348;BME280;6743;49.934;9.138;2023-05-11T06:46:36;100278.34;;;12.45;100.00
13348;BME280;6743;49.934;9.138;2023-05-11T06:49:02;100276.34;;;12.47;100.00
13348;BME280;6743;49.934;9.138;2023-05-11T06:51:28;100266.00;;;12.52;100.00
13348;BME280;6743;49.934;9.138;2023-05-11T06:53:55;100265.81;;;12.53;100.00
13348;BME280;6743;49.934;9.138;2023-05-11T06:56:21;100270.16;;;12.54;100.00
13348;BME280;6743;49.934;9.138;2023-05-11T06:58:47;100255.66;;;12.57;100.00
13348;BME280;6743;49.934;9.138;2023-05-11T07:01:13;100265.47;;;12.56;100.00
13348;BME280;6743;49.934;9.138;2023-05-11T07:03:39;100259.66;;;12.53;100.00
13348;BME280;6743;49.934;9.138;2023-05-11T07:06:05;100268.47;;;12.53;100.00
13348;BME280;6743;49.934;9.138;2023-05-11T07:08:31;100270.53;;;12.51;100.00
13348;BME280;6743;49.934;9.138;2023-05-11T07:10:58;100266.66;;;12.54;100.00
13348;BME280;6743;49.934;9.138;2023-05-11T07:13:24;100263.66;;;12.57;100.00
13348;BME280;6743;49.934;9.138;2023-05-11T07:15:51;100261.28;;;12.62;100.00
13348;BME280;6743;49.934;9.138;2023-05-11T07:18:17;100267.25;;;12.64;100.00
13348;BME280;6743;49.934;9.138;2023-05-11T07:20:43;100274.53;;;12.70;100.00
13348;BME280;6743;49.934;9.138;2023-05-11T07:23:11;100275.00;;;12.74;100.00
13348;BME280;6743;49.934;9.138;2023-05-11T07:25:37;100271.97;;;12.77;100.00
13348;BME280;6743;49.934;9.138;2023-05-11T07:28:03;100276.66;;;12.75;100.00
13348;BME280;6743;49.934;9.138;2023-05-11T07:30:30;100275.94;;;12.81;100.00
13348;BME280;6743;49.934;9.138;2023-05-11T07:32:56;100275.22;;;12.87;100.00
13348;BME280;6743;49.934;9.138;2023-05-11T07:35:24;100280.84;;;12.92;100.00
13348;BME280;6743;49.934;9.138;2023-05-11T07:37:52;100281.69;;;12.92;100.00
13348;BME280;6743;49.934;9.138;2023-05-11T07:40:18;100274.03;;;12.89;100.00
13348;BME280;6743;49.934;9.138;2023-05-11T07:42:44;100279.31;;;12.97;100.00
13348;BME280;6743;49.934;9.138;2023-05-11T07:45:10;100285.28;;;12.99;100.00
13348;BME280;6743;49.934;9.138;2023-05-11T07:47:36;100283.41;;;13.00;100.00
13348;BME280;6743;49.934;9.138;2023-05-11T07:50:04;100281.41;;;13.02;100.00
13348;BME280;6743;49.934;9.138;2023-05-11T07:52:30;100269.09;;;13.01;100.00
13348;BME280;6743;49.934;9.138;2023-05-11T07:54:56;100281.53;;;13.09;100.00
13348;BME280;6743;49.934;9.138;2023-05-11T07:57:22;100285.00;;;13.09;100.00
13348;BME280;6743;49.934;9.138;2023-05-11T07:59:48;100276.69;;;13.12;100.00
13348;BME280;6743;49.934;9.138;2023-05-11T08:02:15;100281.66;;;13.15;100.00
13348;BME280;6743;49.934;9.138;2023-05-11T08:04:43;100282.13;;;13.19;100.00
13348;BME280;6743;49.934;9.138;2023-05-11T08:07:09;100276.31;;;13.15;100.00
13348;BME280;6743;49.934;9.138;2023-05-11T08:09:35;100270.00;;;13.16;100.00
13348;BME280;6743;49.934;9.138;2023-05-11T08:12:04;100273.88;;;13.14;100.00
13348;BME280;6743;49.934;9.138;2023-05-11T08:14:31;100280.00;;;13.14;100.00
13348;BME280;6743;49.934;9.138;2023-05-11T08:16:57;100283.84;;;13.12;100.00
13348;BME280;6743;49.934;9.138;2023-05-11T08:19:23;100274.00;;;13.12;100.00
13348;BME280;6743;49.934;9.138;2023-05-11T08:21:49;100277.34;;;13.14;100.00
13348;BME280;6743;49.934;9.138;2023-05-11T08:24:16;100276.62;;;13.20;100.00
13348;BME280;6743;49.934;9.138;2023-05-11T08:26:43;100274.91;;;13.27;100.00
13348;BME280;6743;49.934;9.138;2023-05-11T08:29:09;100274.34;;;13.32;100.00
13348;BME280;6743;49.934;9.138;2023-05-11T08:31:35;100267.00;;;13.34;100.00
13348;BME280;6743;49.934;9.138;2023-05-11T08:34:01;100279.88;;;13.45;100.00
13348;BME280;6743;49.934;9.138;2023-05-11T08:36:27;100276.28;;;13.53;100.00
13348;BME280;6743;49.934;9.138;2023-05-11T08:38:53;100279.41;;;13.56;100.00
13348;BME280;6743;49.934;9.138;2023-05-11T08:41:21;100271.72;;;13.61;100.00
13348;BME280;6743;49.934;9.138;2023-05-11T08:43:47;100279.41;;;13.71;100.00
13348;BME280;6743;49.934;9.138;2023-05-11T08:46:19;100272.62;;;13.68;100.00
13348;BME280;6743;49.934;9.138;2023-05-11T08:48:46;100275.75;;;13.72;100.00
13348;BME280;6743;49.934;9.138;2023-05-11T08:51:13;100277.84;;;13.76;100.00
13348;BME280;6743;49.934;9.138;2023-05-11T08:53:39;100279.16;;;13.80;100.00
13348;BME280;6743;49.934;9.138;2023-05-11T08:56:06;100281.91;;;13.72;100.00
13348;BME280;6743;49.934;9.138;2023-05-11T08:58:34;100282.25;;;13.69;100.00
13348;BME280;6743;49.934;9.138;2023-05-11T09:01:02;100272.06;;;13.73;100.00
13348;BME280;6743;49.934;9.138;2023-05-11T09:03:29;100285.47;;;13.79;100.00
13348;BME280;6743;49.934;9.138;2023-05-11T09:05:56;100287.41;;;13.86;100.00
13348;BME280;6743;49.934;9.138;2023-05-11T09:08:24;100286.84;;;13.90;100.00
13348;BME280;6743;49.934;9.138;2023-05-11T09:10:53;100288.06;;;13.88;100.00
13348;BME280;6743;49.934;9.138;2023-05-11T09:13:19;100284.91;;;13.84;100.00
13348;BME280;6743;49.934;9.138;2023-05-11T09:15:45;100284.31;;;13.82;100.00
13348;BME280;6743;49.934;9.138;2023-05-11T09:18:11;100282.25;;;13.84;100.00
13348;BME280;6743;49.934;9.138;2023-05-11T09:20:42;100286.03;;;13.90;100.00
13348;BME280;6743;49.934;9.138;2023-05-11T09:23:08;100289.81;;;13.95;100.00
13348;BME280;6743;49.934;9.138;2023-05-11T09:25:36;100279.12;;;13.95;100.00
13348;BME280;6743;49.934;9.138;2023-05-11T09:28:04;100272.03;;;14.02;100.00
13348;BME280;6743;49.934;9.138;2023-05-11T09:30:30;100273.12;;;14.08;100.00
13348;BME280;6743;49.934;9.138;2023-05-11T09:33:00;100287.72;;;14.12;100.00
13348;BME280;6743;49.934;9.138;2023-05-11T09:35:28;100281.03;;;14.16;100.00
13348;BME280;6743;49.934;9.138;2023-05-11T09:38:03;100287.19;;;14.16;100.00
13348;BME280;6743;49.934;9.138;2023-05-11T09:40:30;100283.88;;;14.14;100.00
13348;BME280;6743;49.934;9.138;2023-05-11T09:42:57;100284.13;;;14.19;100.00
13348;BME280;6743;49.934;9.138;2023-05-11T09:45:37;100289.47;;;14.19;100.00
13348;BME280;6743;49.934;9.138;2023-05-11T09:48:05;100287.28;;;14.23;100.00
13348;BME280;6743;49.934;9.138;2023-05-11T09:50:32;100285.22;;;14.25;100.00
13348;BME280;6743;49.934;9.138;2023-05-11T09:52:58;100281.19;;;14.29;100.00
13348;BME280;6743;49.934;9.138;2023-05-11T09:55:24;100280.59;;;14.34;100.00
13348;BME280;6743;49.934;9.138;2023-05-11T09:57:52;100280.06;;;14.38;100.00
13348;BME280;6743;49.934;9.138;2023-05-11T10:00:19;100280.53;;;14.42;100.00
13348;BME280;6743;49.934;9.138;2023-05-11T10:02:58;100285.13;;;14.33;100.00
13348;BME280;6743;49.934;9.138;2023-05-11T10:05:25;100273.81;;;14.31;100.00
13348;BME280;6743;49.934;9.138;2023-05-11T10:07:56;100270.03;;;14.40;100.00
13348;BME280;6743;49.934;9.138;2023-05-11T10:10:23;100280.78;;;14.47;100.00
13348;BME280;6743;49.934;9.138;2023-05-11T10:12:50;100277.75;;;14.50;100.00
13348;BME280;6743;49.934;9.138;2023-05-11T10:15:17;100280.78;;;14.47;100.00
13348;BME280;6743;49.934;9.138;2023-05-11T10:17:45;100284.28;;;14.47;100.00
13348;BME280;6743;49.934;9.138;2023-05-11T10:20:13;100269.66;;;14.43;100.00
13348;BME280;6743;49.934;9.138;2023-05-11T10:22:40;100287.41;;;14.51;100.00
13348;BME280;6743;49.934;9.138;2023-05-11T10:25:07;100268.25;;;14.47;100.00
13348;BME280;6743;49.934;9.138;2023-05-11T10:27:36;100285.19;;;14.54;100.00
13348;BME280;6743;49.934;9.138;2023-05-11T10:30:04;100282.62;;;14.46;100.00
13348;BME280;6743;49.934;9.138;2023-05-11T10:32:35;100274.06;;;14.51;100.00
13348;BME280;6743;49.934;9.138;2023-05-11T10:35:02;100278.38;;;14.52;100.00
13348;BME280;6743;49.934;9.138;2023-05-11T10:37:28;100269.34;;;14.53;100.00
13348;BME280;6743;49.934;9.138;2023-05-11T10:39:56;100267.97;;;14.57;100.00
13348;BME280;6743;49.934;9.138;2023-05-11T10:45:39;100263.22;;;14.59;100.00
13348;BME280;6743;49.934;9.138;2023-05-11T10:48:36;100262.69;;;14.64;100.00
13348;BME280;6743;49.934;9.138;2023-05-11T10:51:20;100271.59;;;14.71;100.00
13348;BME280;6743;49.934;9.138;2023-05-11T10:54:08;100265.84;;;14.74;100.00
13348;BME280;6743;49.934;9.138;2023-05-11T10:56:51;100270.34;;;14.73;100.00
13348;BME280;6743;49.934;9.138;2023-05-11T10:59:45;100268.44;;;14.67;100.00
13348;BME280;6743;49.934;9.138;2023-05-11T11:02:17;100271.53;;;14.64;100.00
13348;BME280;6743;49.934;9.138;2023-05-11T11:04:44;100265.91;;;14.59;100.00
13348;BME280;6743;49.934;9.138;2023-05-11T11:07:11;100265.28;;;14.57;100.00
13348;BME280;6743;49.934;9.138;2023-05-11T11:09:53;100264.22;;;14.51;100.00
13348;BME280;6743;49.934;9.138;2023-05-11T11:12:20;100266.00;;;14.44;100.00
13348;BME280;6743;49.934;9.138;2023-05-11T11:14:55;100262.31;;;14.31;100.00
13348;BME280;6743;49.934;9.138;2023-05-11T11:17:22;100259.84;;;14.29;100.00
13348;BME280;6743;49.934;9.138;2023-05-11T11:19:49;100263.03;;;14.25;100.00
13348;BME280;6743;49.934;9.138;2023-05-11T11:22:41;100257.91;;;14.23;100.00
13348;BME280;6743;49.934;9.138;2023-05-11T11:25:08;100259.75;;;14.23;100.00
13348;BME280;6743;49.934;9.138;2023-05-11T11:27:56;100256.19;;;14.15;100.00
13348;BME280;6743;49.934;9.138;2023-05-11T11:30:24;100261.34;;;14.17;100.00
13348;BME280;6743;49.934;9.138;2023-05-11T11:32:51;100261.78;;;14.20;100.00
13348;BME280;6743;49.934;9.138;2023-05-11T11:35:45;100263.53;;;14.13;100.00
13348;BME280;6743;49.934;9.138;2023-05-11T11:38:14;100270.53;;;14.14;100.00
13348;BME280;6743;49.934;9.138;2023-05-11T11:40:41;100259.16;;;14.06;100.00
13348;BME280;6743;49.934;9.138;2023-05-11T11:43:12;100258.50;;;14.04;100.00
13348;BME280;6743;49.934;9.138;2023-05-11T11:45:39;100250.78;;;14.09;100.00
13348;BME280;6743;49.934;9.138;2023-05-11T11:48:15;100254.72;;;14.13;100.00
13348;BME280;6743;49.934;9.138;2023-05-11T11:50:43;100257.03;;;14.16;100.00
13348;BME280;6743;49.934;9.138;2023-05-11T11:56:38;100250.47;;;14.18;100.00
13348;BME280;6743;49.934;9.138;2023-05-11T11:59:05;100251.22;;;14.12;100.00
13348;BME280;6743;49.934;9.138;2023-05-11T12:01:36;100256.19;;;14.15;100.00
13348;BME280;6743;49.934;9.138;2023-05-11T12:04:30;100258.69;;;14.17;100.00
13348;BME280;6743;49.934;9.138;2023-05-11T12:06:58;100260.38;;;14.25;100.00
13348;BME280;6743;49.934;9.138;2023-05-11T12:09:24;100253.84;;;14.27;100.00
13348;BME280;6743;49.934;9.138;2023-05-11T12:11:51;100260.91;;;14.35;100.00
13348;BME280;6743;49.934;9.138;2023-05-11T12:14:19;100261.84;;;14.42;100.00
13348;BME280;6743;49.934;9.138;2023-05-11T12:16:59;100263.59;;;14.35;100.00
13348;BME280;6743;49.934;9.138;2023-05-11T12:19:25;100250.69;;;14.38;100.00
13348;BME280;6743;49.934;9.138;2023-05-11T12:21:52;100260.72;;;14.51;100.00
13348;BME280;6743;49.934;9.138;2023-05-11T12:24:18;100267.78;;;14.58;100.00
13348;BME280;6743;49.934;9.138;2023-05-11T12:26:44;100254.63;;;14.57;100.00
13348;BME280;6743;49.934;9.138;2023-05-11T12:29:11;100257.16;;;14.65;100.00
13348;BME280;6743;49.934;9.138;2023-05-11T12:31:39;100262.09;;;14.68;100.00
13348;BME280;6743;49.934;9.138;2023-05-11T12:34:07;100253.44;;;14.66;100.00
13348;BME280;6743;49.934;9.138;2023-05-11T12:36:38;100257.41;;;14.70;100.00
13348;BME280;6743;49.934;9.138;2023-05-11T12:39:04;100253.31;;;14.74;100.00
13348;BME280;6743;49.934;9.138;2023-05-11T12:41:31;100245.72;;;14.71;100.00
13348;BME280;6743;49.934;9.138;2023-05-11T12:43:57;100240.91;;;14.67;100.00
13348;BME280;6743;49.934;9.138;2023-05-11T12:46:23;100255.62;;;14.77;100.00
13348;BME280;6743;49.934;9.138;2023-05-11T12:48:50;100254.16;;;14.75;100.00
13348;BME280;6743;49.934;9.138;2023-05-11T12:51:42;100248.81;;;14.75;100.00
13348;BME280;6743;49.934;9.138;2023-05-11T12:54:08;100251.28;;;14.76;100.00
13348;BME280;6743;49.934;9.138;2023-05-11T12:56:44;100245.94;;;14.76;100.00
13348;BME280;6743;49.934;9.138;2023-05-11T12:59:23;100247.84;;;14.82;100.00
13348;BME280;6743;49.934;9.138;2023-05-11T13:01:49;100242.56;;;14.89;100.00